createdAt,value
2022-11-05T00:02:08.730Z,55.26
2022-11-05T00:04:56.654Z,55.59
2022-11-05T00:07:56.022Z,55.60
2022-11-05T00:10:35.788Z,55.84
2022-11-05T00:13:27.659Z,56.30
2022-11-05T00:16:16.077Z,56.19
2022-11-05T00:18:45.957Z,56.27
2022-11-05T00:21:38.838Z,56.78
2022-11-05T00:24:30.056Z,56.58
2022-11-05T00:26:59.875Z,57.03
2022-11-05T00:29:30.244Z,57.00
2022-11-05T00:32:00.419Z,61.08
2022-11-05T00:34:30.379Z,63.73
2022-11-05T00:37:00.234Z,65.51
2022-11-05T00:39:30.132Z,68.43
2022-11-05T00:42:20.422Z,70.65
2022-11-05T00:45:02.799Z,71.76
2022-11-05T00:47:53.011Z,72.29
2022-11-05T00:50:24.580Z,73.55
2022-11-05T00:52:57.741Z,74.16
2022-11-05T00:55:38.991Z,73.56
2022-11-05T00:58:14.146Z,72.74
2022-11-05T01:00:46.630Z,73.35
2022-11-05T01:03:18.531Z,72.99
2022-11-05T01:05:52.267Z,72.93
2022-11-05T01:08:25.260Z,73.10
2022-11-05T01:10:57.582Z,73.54
2022-11-05T01:13:30.768Z,73.18
2022-11-05T01:16:07.294Z,72.89
2022-11-05T01:18:40.150Z,72.03
2022-11-05T01:21:16.644Z,72.45
2022-11-05T01:23:46.477Z,72.97
2022-11-05T01:26:16.886Z,72.11
2022-11-05T01:28:52.784Z,73.15
2022-11-05T01:31:23.441Z,72.76
2022-11-05T01:33:53.676Z,72.65
2022-11-05T01:36:23.596Z,72.99
2022-11-05T01:38:53.464Z,72.12
2022-11-05T01:41:23.345Z,70.73
2022-11-05T01:43:56.463Z,69.67
2022-11-05T01:46:37.786Z,69.83
2022-11-05T01:49:51.272Z,69.76
2022-11-05T01:52:23.438Z,69.10
2022-11-05T01:54:53.274Z,70.65
2022-11-05T01:57:23.146Z,69.43
2022-11-05T01:59:58.087Z,68.77
2022-11-05T02:02:28.768Z,69.26
2022-11-05T02:05:05.410Z,70.23
2022-11-05T02:07:35.644Z,69.82
2022-11-05T02:10:18.885Z,69.64
2022-11-05T02:12:49.502Z,69.60
2022-11-05T02:15:29.256Z,69.15
2022-11-05T02:17:59.135Z,69.13
2022-11-05T02:20:48.010Z,69.79
2022-11-05T02:23:24.301Z,69.55
2022-11-05T02:26:11.971Z,69.80
2022-11-05T02:29:03.254Z,69.57
2022-11-05T02:31:55.922Z,69.91
2022-11-05T02:34:50.673Z,70.30
2022-11-05T02:38:00.700Z,70.50
2022-11-05T02:40:55.575Z,69.95
2022-11-05T02:43:25.383Z,69.05
2022-11-05T02:46:02.277Z,68.75
2022-11-05T02:48:50.237Z,69.00
2022-11-05T02:51:40.202Z,68.95
2022-11-05T02:54:24.414Z,68.50
2022-11-05T02:56:58.184Z,69.07
2022-11-05T02:59:28.657Z,68.90
2022-11-05T03:01:59.635Z,68.50
2022-11-05T03:04:31.264Z,68.41
2022-11-05T03:07:21.233Z,68.59
2022-11-05T03:10:27.479Z,68.20
2022-11-05T03:13:23.574Z,68.46
2022-11-05T03:16:02.093Z,68.48
2022-11-05T03:18:52.374Z,69.37
2022-11-05T03:21:40.918Z,69.61
2022-11-05T03:24:35.592Z,69.07
2022-11-05T03:27:32.211Z,69.23
2022-11-05T03:30:56.725Z,68.79
2022-11-05T03:33:31.229Z,68.09
2022-11-05T03:36:06.306Z,68.61
2022-11-05T03:38:41.066Z,67.89
2022-11-05T03:41:15.013Z,68.90
2022-11-05T03:43:53.076Z,69.16
2022-11-05T03:47:07.899Z,70.00
2022-11-05T03:49:56.584Z,69.20
2022-11-05T03:52:31.055Z,68.26
2022-11-05T03:55:03.576Z,67.11
2022-11-05T03:57:38.311Z,66.76
2022-11-05T04:00:11.100Z,66.31
2022-11-05T04:02:44.078Z,65.61
2022-11-05T04:05:15.025Z,64.12
2022-11-05T04:08:06.003Z,63.75
2022-11-05T04:10:55.976Z,62.90
2022-11-05T04:13:26.320Z,62.06
2022-11-05T04:16:16.174Z,61.06
2022-11-05T04:18:46.456Z,60.49
2022-11-05T04:21:34.965Z,60.25
2022-11-05T04:24:11.010Z,59.96
2022-11-05T04:26:44.629Z,59.46
2022-11-05T04:29:33.071Z,59.31
2022-11-05T04:32:02.966Z,58.66
2022-11-05T04:34:32.884Z,58.09
2022-11-05T04:37:02.742Z,58.10
2022-11-05T04:39:32.605Z,57.08
2022-11-05T04:42:02.544Z,57.08
2022-11-05T04:44:32.704Z,56.67
2022-11-05T04:47:02.735Z,55.67
2022-11-05T04:49:32.742Z,55.08
2022-11-05T04:52:02.551Z,55.04
2022-11-05T04:54:32.550Z,55.10
2022-11-05T04:57:02.655Z,54.56
2022-11-05T04:59:32.948Z,53.52
2022-11-05T05:02:02.952Z,53.90
2022-11-05T05:04:32.964Z,53.55
2022-11-05T05:07:02.865Z,53.25
2022-11-05T05:09:32.954Z,53.93
2022-11-05T05:12:03.448Z,53.77
2022-11-05T05:14:33.977Z,53.14
2022-11-05T05:17:04.038Z,52.62
2022-11-05T05:19:56.740Z,52.56
2022-11-05T05:22:26.793Z,53.18
2022-11-05T05:25:00.863Z,52.91
2022-11-05T05:27:31.746Z,52.40
2022-11-05T05:30:01.829Z,53.13
2022-11-05T05:32:31.769Z,52.80
2022-11-05T05:35:01.663Z,52.21
2022-11-05T05:37:31.765Z,52.05
2022-11-05T05:40:01.805Z,51.18
2022-11-05T05:42:32.006Z,50.37
2022-11-05T05:45:01.887Z,49.96
2022-11-05T05:47:32.133Z,49.98
2022-11-05T05:50:02.063Z,49.13
2022-11-05T05:52:32.074Z,48.59
2022-11-05T05:55:02.015Z,48.26
2022-11-05T05:57:31.958Z,48.09
2022-11-05T06:00:02.828Z,48.16
2022-11-05T06:02:41.594Z,47.22
2022-11-05T06:05:12.055Z,47.11
2022-11-05T06:07:41.953Z,47.30
2022-11-05T06:10:11.935Z,46.67
2022-11-05T06:12:42.322Z,46.20
2022-11-05T06:15:12.304Z,46.10
2022-11-05T06:17:45.205Z,45.57
2022-11-05T06:20:15.091Z,45.46
2022-11-05T06:22:45.007Z,45.56
2022-11-05T06:25:14.946Z,45.07
2022-11-05T06:27:44.797Z,45.79
2022-11-05T06:30:15.468Z,45.56
2022-11-05T06:32:46.024Z,45.12
2022-11-05T06:35:16.186Z,45.19
2022-11-05T06:37:46.113Z,44.84
2022-11-05T06:40:16.017Z,45.25
2022-11-05T06:42:45.869Z,44.41
2022-11-05T06:45:15.840Z,44.38
2022-11-05T06:47:45.676Z,44.88
2022-11-05T06:50:16.059Z,44.04
2022-11-05T06:52:45.918Z,44.80
2022-11-05T06:55:15.942Z,44.53
2022-11-05T06:57:45.787Z,43.91
2022-11-05T07:00:16.097Z,44.16
2022-11-05T07:02:46.159Z,44.13
2022-11-05T07:05:17.120Z,43.92
2022-11-05T07:07:47.313Z,43.81
2022-11-05T07:10:19.976Z,44.40
2022-11-05T07:12:50.912Z,43.77
2022-11-05T07:15:20.812Z,44.01
2022-11-05T07:17:50.775Z,43.70
2022-11-05T07:20:20.791Z,43.86
2022-11-05T07:22:50.924Z,44.98
2022-11-05T07:25:21.552Z,44.89
2022-11-05T07:27:51.692Z,44.06
2022-11-05T07:30:21.758Z,43.83
2022-11-05T07:32:51.820Z,43.93
2022-11-05T07:35:21.982Z,44.10
2022-11-05T07:37:54.858Z,49.41
2022-11-05T07:40:27.309Z,49.88
2022-11-05T07:43:00.262Z,52.28
2022-11-05T07:45:31.991Z,59.06
2022-11-05T07:48:03.615Z,61.07
2022-11-05T07:50:34.914Z,63.07
2022-11-05T07:53:13.553Z,61.93
2022-11-05T07:55:44.891Z,62.14
2022-11-05T07:58:15.371Z,62.19
2022-11-05T08:00:45.759Z,62.24
2022-11-05T08:03:18.733Z,61.44
2022-11-05T08:05:49.339Z,61.22
2022-11-05T08:08:21.003Z,61.62
2022-11-05T08:10:50.938Z,62.10
2022-11-05T08:13:20.924Z,62.91
2022-11-05T08:15:50.882Z,62.26
2022-11-05T08:18:21.509Z,61.36
2022-11-05T08:20:52.055Z,60.83
2022-11-05T08:23:21.957Z,60.51
2022-11-05T08:25:51.957Z,59.82
2022-11-05T08:28:22.835Z,59.66
2022-11-05T08:30:57.376Z,60.07
2022-11-05T08:33:28.879Z,60.20
2022-11-05T08:36:02.561Z,60.42
2022-11-05T08:38:32.621Z,60.28
2022-11-05T08:41:02.933Z,59.64
2022-11-05T08:43:33.080Z,60.50
2022-11-05T08:46:03.209Z,60.73
2022-11-05T08:48:33.082Z,59.84
2022-11-05T08:51:02.908Z,58.88
2022-11-05T08:53:32.784Z,58.88
2022-11-05T08:56:02.749Z,57.58
2022-11-05T08:58:33.923Z,58.39
2022-11-05T09:01:06.534Z,58.84
2022-11-05T09:03:36.551Z,58.88
2022-11-05T09:06:06.696Z,57.72
2022-11-05T09:08:36.768Z,59.04
2022-11-05T09:11:07.205Z,60.02
2022-11-05T09:13:37.429Z,59.60
2022-11-05T09:16:08.106Z,58.84
2022-11-05T09:18:40.104Z,57.82
2022-11-05T09:21:10.208Z,60.15
2022-11-05T09:23:40.970Z,61.01
2022-11-05T09:26:12.197Z,62.08
2022-11-05T09:28:44.283Z,62.02
2022-11-05T09:31:15.095Z,61.04
2022-11-05T09:33:45.106Z,59.92
2022-11-05T09:36:15.125Z,58.75
2022-11-05T09:38:45.074Z,57.74
2022-11-05T09:41:23.755Z,56.43
2022-11-05T09:44:04.705Z,56.51
2022-11-05T09:46:47.836Z,56.77
2022-11-05T09:49:43.154Z,56.61
2022-11-05T09:52:26.586Z,56.45
2022-11-05T09:55:38.631Z,56.61
2022-11-05T09:58:28.516Z,56.94
2022-11-05T10:01:00.577Z,56.77
2022-11-05T10:03:52.552Z,56.42
2022-11-05T10:06:25.548Z,56.19
2022-11-05T10:09:10.113Z,56.09
2022-11-05T10:11:46.779Z,56.31
2022-11-05T10:14:33.382Z,56.82
2022-11-05T10:17:14.240Z,57.42
2022-11-05T10:19:52.969Z,58.12
2022-11-05T10:22:23.554Z,58.28
2022-11-05T10:24:56.149Z,58.57
2022-11-05T10:27:30.564Z,58.50
2022-11-05T10:30:01.271Z,58.82
2022-11-05T10:32:44.292Z,59.01
2022-11-05T10:35:23.385Z,59.42
2022-11-05T10:37:56.912Z,58.98
2022-11-05T10:40:54.596Z,59.39
2022-11-05T10:43:44.432Z,59.30
2022-11-05T10:46:47.454Z,59.50
2022-11-05T10:49:53.147Z,59.37
2022-11-05T10:52:35.292Z,59.12
2022-11-05T10:55:34.063Z,59.34
2022-11-05T10:58:22.084Z,59.36
2022-11-05T11:00:54.559Z,59.12
2022-11-05T11:03:47.271Z,59.72
2022-11-05T11:06:26.129Z,59.84
2022-11-05T11:09:01.216Z,59.74
2022-11-05T11:11:37.906Z,59.57
2022-11-05T11:14:13.715Z,59.77
2022-11-05T11:16:49.519Z,59.76
2022-11-05T11:19:22.654Z,60.13
2022-11-05T11:22:05.518Z,60.39
2022-11-05T11:25:19.373Z,61.28
2022-11-05T11:27:50.069Z,60.48
2022-11-05T11:30:21.783Z,60.76
2022-11-05T11:32:52.033Z,61.62
2022-11-05T11:35:25.072Z,61.90
2022-11-05T11:37:56.920Z,62.10
2022-11-05T11:40:33.930Z,61.99
2022-11-05T11:43:26.181Z,62.56
2022-11-05T11:46:02.115Z,63.24
2022-11-05T11:48:37.728Z,63.43
2022-11-05T11:51:32.263Z,63.45
2022-11-05T11:54:03.450Z,63.83
2022-11-05T11:56:45.489Z,64.55
2022-11-05T11:59:46.887Z,65.31
2022-11-05T12:02:55.972Z,65.21
2022-11-05T12:05:45.341Z,65.10
2022-11-05T12:08:34.578Z,65.32
2022-11-05T12:11:28.882Z,65.88
2022-11-05T12:14:10.447Z,65.92
2022-11-05T12:17:04.462Z,66.78
2022-11-05T12:20:04.429Z,67.28
2022-11-05T12:23:12.129Z,66.40
2022-11-05T12:26:05.280Z,65.18
2022-11-05T12:29:17.738Z,65.48
2022-11-05T12:32:31.885Z,66.42
2022-11-05T12:35:31.918Z,66.58
2022-11-05T12:38:07.521Z,67.47
2022-11-05T12:41:07.783Z,68.07
2022-11-05T12:44:19.135Z,70.22
2022-11-05T12:47:22.444Z,70.69
2022-11-05T12:50:18.222Z,70.39
2022-11-05T12:53:25.000Z,70.56
2022-11-05T12:55:58.712Z,71.28
2022-11-05T12:59:02.463Z,71.07
2022-11-05T13:01:47.375Z,70.78
2022-11-05T13:04:44.543Z,69.72
2022-11-05T13:07:19.096Z,68.32
2022-11-05T13:10:04.716Z,67.13
2022-11-05T13:12:40.019Z,66.29
2022-11-05T13:15:41.488Z,66.04
2022-11-05T13:18:20.906Z,65.25
2022-11-05T13:20:54.833Z,65.36
2022-11-05T13:23:38.976Z,64.67
2022-11-05T13:26:54.015Z,64.92
2022-11-05T13:29:23.830Z,63.94
2022-11-05T13:32:09.700Z,62.76
2022-11-05T13:34:40.138Z,64.05
2022-11-05T13:37:29.893Z,64.97
2022-11-05T13:40:06.996Z,65.60
2022-11-05T13:42:53.180Z,65.01
2022-11-05T13:45:34.836Z,63.58
2022-11-05T13:48:31.858Z,63.58
2022-11-05T13:51:08.749Z,63.26
2022-11-05T13:53:40.493Z,62.75
2022-11-05T13:56:18.818Z,62.59
2022-11-05T13:59:10.933Z,62.07
2022-11-05T14:01:56.986Z,60.95
2022-11-05T14:05:01.607Z,61.37
2022-11-05T14:07:48.068Z,61.54
2022-11-05T14:10:41.546Z,61.17
2022-11-05T14:13:37.934Z,60.13
2022-11-05T14:16:24.444Z,59.91
2022-11-05T14:19:20.838Z,59.26
2022-11-05T14:21:59.561Z,58.66
2022-11-05T14:24:44.229Z,58.52
2022-11-05T14:27:14.063Z,57.73
2022-11-05T14:29:49.082Z,58.51
2022-11-05T14:32:22.238Z,59.33
2022-11-05T14:35:18.261Z,58.83
2022-11-05T14:37:59.291Z,59.63
2022-11-05T14:40:37.219Z,59.95
2022-11-05T14:43:28.088Z,59.84
2022-11-05T14:46:07.641Z,58.55
2022-11-05T14:49:09.307Z,58.43
2022-11-05T14:51:45.165Z,58.11
2022-11-05T14:54:38.305Z,58.27
2022-11-05T14:57:12.497Z,57.66
2022-11-05T14:59:53.833Z,57.27
2022-11-05T15:02:47.731Z,56.77
2022-11-05T15:05:41.047Z,56.67
2022-11-05T15:08:31.975Z,55.60
2022-11-05T15:11:27.242Z,55.76
2022-11-05T15:14:02.555Z,55.41
2022-11-05T15:16:42.322Z,55.09
2022-11-05T15:19:33.962Z,54.18
2022-11-05T15:22:08.207Z,54.09
2022-11-05T15:24:38.403Z,53.79
2022-11-05T15:28:03.450Z,54.17
2022-11-05T15:30:34.011Z,53.65
2022-11-05T15:33:18.336Z,53.19
2022-11-05T15:35:48.514Z,52.78
2022-11-05T15:39:01.975Z,53.07
2022-11-05T15:41:35.413Z,53.16
2022-11-05T15:44:20.828Z,53.41
2022-11-05T15:46:50.736Z,53.77
2022-11-05T15:49:21.303Z,53.83
2022-11-05T15:51:51.260Z,54.23
2022-11-05T15:54:30.268Z,53.78
2022-11-05T15:57:04.339Z,53.98
2022-11-05T15:59:40.157Z,53.33
2022-11-05T16:02:37.120Z,52.54
2022-11-05T16:05:13.922Z,51.81
2022-11-05T16:07:48.559Z,51.63
2022-11-05T16:10:26.706Z,51.04
2022-11-05T16:12:56.589Z,52.78
2022-11-05T16:15:33.077Z,51.99
2022-11-05T16:18:03.023Z,51.24
2022-11-05T16:20:39.766Z,50.58
2022-11-05T16:23:26.569Z,51.11
2022-11-05T16:25:56.716Z,50.26
2022-11-05T16:28:30.169Z,50.35
2022-11-05T16:31:03.049Z,49.74
2022-11-05T16:33:43.692Z,49.62
2022-11-05T16:36:14.072Z,49.60
2022-11-05T16:38:44.310Z,49.19
2022-11-05T16:41:19.606Z,49.15
2022-11-05T16:43:55.364Z,48.87
2022-11-05T16:46:28.245Z,49.41
2022-11-05T16:48:58.818Z,48.76
2022-11-05T16:51:29.795Z,48.66
2022-11-05T16:53:59.691Z,48.36
2022-11-05T16:56:30.110Z,48.13
2022-11-05T16:59:00.352Z,48.68
2022-11-05T17:02:23.075Z,48.65
2022-11-05T17:04:53.030Z,48.70
2022-11-05T17:07:22.849Z,48.40
2022-11-05T17:10:22.301Z,48.27
2022-11-05T17:12:52.704Z,48.08
2022-11-05T17:15:40.733Z,48.39
2022-11-05T17:18:17.919Z,47.84
2022-11-05T17:20:51.780Z,47.53
2022-11-05T17:23:24.250Z,47.85
2022-11-05T17:26:02.894Z,47.59
2022-11-05T17:28:34.182Z,47.93
2022-11-05T17:31:07.147Z,47.71
2022-11-05T17:33:37.127Z,48.25
2022-11-05T17:36:09.485Z,48.36
2022-11-05T17:38:39.474Z,48.30
2022-11-05T17:41:14.228Z,47.49
2022-11-05T17:43:45.026Z,47.80
2022-11-05T17:46:19.718Z,46.75
2022-11-05T17:48:49.965Z,47.54
2022-11-05T17:51:20.641Z,47.58
2022-11-05T17:53:50.758Z,46.79
2022-11-05T17:56:32.469Z,47.09
2022-11-05T17:59:03.503Z,47.62
2022-11-05T18:01:36.664Z,46.63
2022-11-05T18:04:08.977Z,46.92
2022-11-05T18:06:41.190Z,46.71
2022-11-05T18:09:12.317Z,46.45
2022-11-05T18:11:42.934Z,47.12
2022-11-05T18:14:13.326Z,46.95
2022-11-05T18:16:43.203Z,47.52
2022-11-05T18:19:13.224Z,46.91
2022-11-05T18:21:43.115Z,47.07
2022-11-05T18:24:13.914Z,46.03
2022-11-05T18:26:44.290Z,47.52
2022-11-05T18:29:15.012Z,47.64
2022-11-05T18:31:45.033Z,47.14
2022-11-05T18:34:15.084Z,47.18
2022-11-05T18:36:46.196Z,46.79
2022-11-05T18:39:16.192Z,46.66
2022-11-05T18:41:46.210Z,46.80
2022-11-05T18:44:17.710Z,47.12
2022-11-05T18:47:02.658Z,47.26
2022-11-05T18:49:32.935Z,46.64
2022-11-05T18:52:03.036Z,46.83
2022-11-05T18:54:33.245Z,46.78
2022-11-05T18:57:03.400Z,46.40
2022-11-05T18:59:39.168Z,46.56
2022-11-05T19:02:12.042Z,46.80
2022-11-05T19:04:55.296Z,46.59
2022-11-05T19:07:32.705Z,46.70
2022-11-05T19:10:02.640Z,46.67
2022-11-05T19:12:32.530Z,46.79
2022-11-05T19:15:03.117Z,46.73
2022-11-05T19:17:36.773Z,46.71
2022-11-05T19:20:07.806Z,46.62
2022-11-05T19:22:37.908Z,46.63
2022-11-05T19:25:08.882Z,46.58
2022-11-05T19:27:39.683Z,46.02
2022-11-05T19:30:10.743Z,46.11
2022-11-05T19:32:40.652Z,46.38
2022-11-05T19:35:11.067Z,46.33
2022-11-05T19:37:40.907Z,45.89
2022-11-05T19:40:12.230Z,46.55
2022-11-05T19:42:42.738Z,45.95
2022-11-05T19:48:02.957Z,46.02
2022-11-05T19:50:33.306Z,46.62
2022-11-05T19:53:03.281Z,46.57
2022-11-05T19:55:33.212Z,46.71
2022-11-05T19:58:03.110Z,46.32
2022-11-05T20:00:33.118Z,46.42
2022-11-05T20:03:04.029Z,45.89
2022-11-05T20:05:36.968Z,45.75
2022-11-05T20:08:07.361Z,46.06
2022-11-05T20:10:39.079Z,46.17
2022-11-05T20:13:09.065Z,46.49
2022-11-05T20:15:40.028Z,45.92
2022-11-05T20:18:10.287Z,46.67
2022-11-05T20:20:40.880Z,46.64
2022-11-05T20:23:10.891Z,46.05
2022-11-05T20:25:41.327Z,45.88
2022-11-05T20:28:11.647Z,46.15
2022-11-05T20:30:42.751Z,46.05
2022-11-05T20:33:13.220Z,46.30
2022-11-05T20:35:43.804Z,46.05
2022-11-05T20:38:13.966Z,46.07
2022-11-05T20:40:44.343Z,46.03
2022-11-05T20:43:14.265Z,46.38
2022-11-05T20:45:44.114Z,45.79
2022-11-05T20:48:14.865Z,45.90
2022-11-05T20:50:46.233Z,46.08
2022-11-05T20:53:16.337Z,46.07
2022-11-05T20:55:48.960Z,45.62
2022-11-05T20:58:19.272Z,46.09
2022-11-05T21:00:52.788Z,45.72
2022-11-05T21:03:23.161Z,45.76
2022-11-05T21:05:57.278Z,45.29
2022-11-05T21:08:28.729Z,45.87
2022-11-05T21:10:58.752Z,45.66
2022-11-05T21:13:29.618Z,45.60
2022-11-05T21:16:01.510Z,45.13
2022-11-05T21:18:34.523Z,44.74
2022-11-05T21:21:14.821Z,44.56
2022-11-05T21:23:45.306Z,45.18
2022-11-05T21:26:17.592Z,45.18
2022-11-05T21:28:47.757Z,45.00
2022-11-05T21:31:18.602Z,45.17
2022-11-05T21:33:53.991Z,45.34
2022-11-05T21:36:24.984Z,44.92
2022-11-05T21:38:54.850Z,45.31
2022-11-05T21:41:24.837Z,44.75
2022-11-05T21:43:55.143Z,45.00
2022-11-05T21:46:25.186Z,44.96
2022-11-05T21:48:55.058Z,44.88
2022-11-05T21:51:43.379Z,44.90
2022-11-05T21:54:31.916Z,45.14
2022-11-05T21:57:21.084Z,44.98
2022-11-05T21:59:53.217Z,44.68
2022-11-05T22:02:24.468Z,44.88
2022-11-05T22:04:57.654Z,45.06
2022-11-05T22:07:34.190Z,44.35
2022-11-05T22:10:06.412Z,44.85
2022-11-05T22:12:36.650Z,44.49
2022-11-05T22:15:07.092Z,44.91
2022-11-05T22:17:40.392Z,44.90
2022-11-05T22:20:12.616Z,45.06
2022-11-05T22:22:42.486Z,45.07
2022-11-05T22:25:13.821Z,44.76
2022-11-05T22:27:44.722Z,44.52
2022-11-05T22:30:15.540Z,44.65
2022-11-05T22:32:47.058Z,44.77
2022-11-05T22:35:16.964Z,45.23
2022-11-05T22:37:47.362Z,44.62
2022-11-05T22:40:17.370Z,44.76
2022-11-05T22:42:47.248Z,44.77
2022-11-05T22:45:17.208Z,44.86
2022-11-05T22:47:47.160Z,44.23
2022-11-05T22:50:17.085Z,44.39
2022-11-05T22:52:46.948Z,44.98
2022-11-05T22:55:16.817Z,44.81
2022-11-05T22:57:46.788Z,44.96
2022-11-05T23:00:18.286Z,44.85
2022-11-05T23:02:48.916Z,44.83
2022-11-05T23:05:18.891Z,46.08
2022-11-05T23:08:07.276Z,47.32
2022-11-05T23:10:58.515Z,47.98
2022-11-05T23:13:28.761Z,48.54
2022-11-05T23:16:17.061Z,48.84
2022-11-05T23:19:06.010Z,49.50
2022-11-05T23:21:54.478Z,50.26
2022-11-05T23:24:24.340Z,50.68
2022-11-05T23:26:54.870Z,50.60
2022-11-05T23:29:28.991Z,50.74
2022-11-05T23:32:17.300Z,51.22
2022-11-05T23:34:47.194Z,51.53
2022-11-05T23:37:35.563Z,52.42
2022-11-05T23:40:07.983Z,52.67
2022-11-05T23:42:55.779Z,53.03
2022-11-05T23:45:43.846Z,53.74
2022-11-05T23:48:19.499Z,53.97
2022-11-05T23:50:54.651Z,53.81
2022-11-05T23:53:25.240Z,54.11
2022-11-05T23:55:59.505Z,54.29
2022-11-05T23:58:29.557Z,55.10
